sensor_id;sensor_type;location;lat;lon;timestamp;P1;durP1;ratioP1;P2;durP2;ratioP2
53245;SDS011;39569;51.090;-1.786;2023-11-21T00:00:21;1.55;;;1.45;;
53245;SDS011;39569;51.090;-1.786;2023-11-21T00:02:49;2.53;;;1.10;;
53245;SDS011;39569;51.090;-1.786;2023-11-21T00:05:16;3.38;;;1.40;;
53245;SDS011;39569;51.090;-1.786;2023-11-21T00:07:43;5.32;;;1.67;;
53245;SDS011;39569;51.090;-1.786;2023-11-21T00:10:10;5.07;;;1.83;;
53245;SDS011;39569;51.090;-1.786;2023-11-21T00:12:39;1.42;;;0.40;;
53245;SDS011;39569;51.090;-1.786;2023-11-21T00:15:07;0.93;;;0.45;;
53245;SDS011;39569;51.090;-1.786;2023-11-21T00:17:36;2.78;;;1.58;;
53245;SDS011;39569;51.090;-1.786;2023-11-21T00:20:04;2.85;;;1.27;;
53245;SDS011;39569;51.090;-1.786;2023-11-21T00:22:32;1.35;;;1.20;;
53245;SDS011;39569;51.090;-1.786;2023-11-21T00:24:59;2.55;;;1.90;;
53245;SDS011;39569;51.090;-1.786;2023-11-21T00:27:26;1.95;;;1.23;;
53245;SDS011;39569;51.090;-1.786;2023-11-21T00:29:53;10.32;;;2.47;;
53245;SDS011;39569;51.090;-1.786;2023-11-21T00:32:20;2.97;;;2.10;;
53245;SDS011;39569;51.090;-1.786;2023-11-21T00:34:46;1.80;;;1.50;;
53245;SDS011;39569;51.090;-1.786;2023-11-21T00:37:15;8.30;;;1.10;;
53245;SDS011;39569;51.090;-1.786;2023-11-21T00:39:41;7.60;;;1.90;;
53245;SDS011;39569;51.090;-1.786;2023-11-21T00:42:08;2.42;;;1.50;;
53245;SDS011;39569;51.090;-1.786;2023-11-21T00:44:37;2.70;;;1.40;;
53245;SDS011;39569;51.090;-1.786;2023-11-21T00:47:04;2.50;;;1.40;;
53245;SDS011;39569;51.090;-1.786;2023-11-21T00:49:31;2.50;;;1.50;;
53245;SDS011;39569;51.090;-1.786;2023-11-21T00:51:58;2.13;;;1.73;;
53245;SDS011;39569;51.090;-1.786;2023-11-21T00:54:26;2.58;;;1.30;;
53245;SDS011;39569;51.090;-1.786;2023-11-21T00:56:53;2.35;;;1.90;;
53245;SDS011;39569;51.090;-1.786;2023-11-21T00:59:20;2.78;;;1.30;;
53245;SDS011;39569;51.090;-1.786;2023-11-21T01:01:48;2.13;;;1.65;;
53245;SDS011;39569;51.090;-1.786;2023-11-21T01:04:14;6.35;;;2.72;;
53245;SDS011;39569;51.090;-1.786;2023-11-21T01:06:41;1.17;;;1.08;;
53245;SDS011;39569;51.090;-1.786;2023-11-21T01:09:08;2.53;;;1.77;;
53245;SDS011;39569;51.090;-1.786;2023-11-21T01:11:36;2.50;;;1.45;;
53245;SDS011;39569;51.090;-1.786;2023-11-21T01:14:04;4.68;;;1.63;;
53245;SDS011;39569;51.090;-1.786;2023-11-21T01:16:31;4.32;;;2.58;;
53245;SDS011;39569;51.090;-1.786;2023-11-21T01:18:58;4.35;;;1.77;;
53245;SDS011;39569;51.090;-1.786;2023-11-21T01:21:25;2.25;;;1.30;;
53245;SDS011;39569;51.090;-1.786;2023-11-21T01:23:53;4.85;;;1.60;;
53245;SDS011;39569;51.090;-1.786;2023-11-21T01:26:20;7.35;;;1.60;;
53245;SDS011;39569;51.090;-1.786;2023-11-21T01:28:48;3.45;;;1.95;;
53245;SDS011;39569;51.090;-1.786;2023-11-21T01:31:15;5.60;;;2.53;;
53245;SDS011;39569;51.090;-1.786;2023-11-21T01:33:42;2.53;;;1.90;;
53245;SDS011;39569;51.090;-1.786;2023-11-21T01:36:09;2.88;;;1.70;;
53245;SDS011;39569;51.090;-1.786;2023-11-21T01:38:36;1.92;;;1.50;;
53245;SDS011;39569;51.090;-1.786;2023-11-21T01:41:03;3.17;;;1.17;;
53245;SDS011;39569;51.090;-1.786;2023-11-21T01:43:31;2.72;;;2.00;;
53245;SDS011;39569;51.090;-1.786;2023-11-21T01:45:59;2.00;;;1.90;;
53245;SDS011;39569;51.090;-1.786;2023-11-21T01:48:26;4.78;;;2.40;;
53245;SDS011;39569;51.090;-1.786;2023-11-21T01:50:54;3.10;;;2.22;;
53245;SDS011;39569;51.090;-1.786;2023-11-21T01:53:21;3.70;;;2.10;;
53245;SDS011;39569;51.090;-1.786;2023-11-21T01:55:50;7.30;;;1.85;;
53245;SDS011;39569;51.090;-1.786;2023-11-21T01:58:18;4.05;;;2.15;;
53245;SDS011;39569;51.090;-1.786;2023-11-21T02:00:46;3.13;;;2.28;;
53245;SDS011;39569;51.090;-1.786;2023-11-21T02:03:17;3.15;;;2.03;;
53245;SDS011;39569;51.090;-1.786;2023-11-21T02:05:44;3.78;;;2.53;;
53245;SDS011;39569;51.090;-1.786;2023-11-21T02:08:11;2.92;;;2.70;;
53245;SDS011;39569;51.090;-1.786;2023-11-21T02:10:37;2.78;;;1.88;;
53245;SDS011;39569;51.090;-1.786;2023-11-21T02:13:03;3.15;;;1.80;;
53245;SDS011;39569;51.090;-1.786;2023-11-21T02:15:31;1.33;;;1.17;;
53245;SDS011;39569;51.090;-1.786;2023-11-21T02:17:58;2.15;;;1.73;;
53245;SDS011;39569;51.090;-1.786;2023-11-21T02:20:27;6.38;;;1.92;;
53245;SDS011;39569;51.090;-1.786;2023-11-21T02:22:56;3.03;;;1.92;;
53245;SDS011;39569;51.090;-1.786;2023-11-21T02:25:24;3.28;;;1.83;;
53245;SDS011;39569;51.090;-1.786;2023-11-21T02:27:52;5.25;;;1.90;;
53245;SDS011;39569;51.090;-1.786;2023-11-21T02:30:20;2.47;;;0.90;;
53245;SDS011;39569;51.090;-1.786;2023-11-21T02:32:47;1.50;;;1.40;;
53245;SDS011;39569;51.090;-1.786;2023-11-21T02:35:14;7.97;;;1.20;;
53245;SDS011;39569;51.090;-1.786;2023-11-21T02:37:42;1.63;;;1.52;;
53245;SDS011;39569;51.090;-1.786;2023-11-21T02:40:10;4.03;;;1.67;;
53245;SDS011;39569;51.090;-1.786;2023-11-21T02:42:39;2.30;;;1.50;;
53245;SDS011;39569;51.090;-1.786;2023-11-21T02:45:06;1.30;;;0.73;;
53245;SDS011;39569;51.090;-1.786;2023-11-21T02:47:34;1.65;;;1.55;;
53245;SDS011;39569;51.090;-1.786;2023-11-21T02:50:00;2.08;;;1.63;;
53245;SDS011;39569;51.090;-1.786;2023-11-21T02:52:27;1.88;;;1.65;;
53245;SDS011;39569;51.090;-1.786;2023-11-21T02:54:54;0.35;;;0.35;;
53245;SDS011;39569;51.090;-1.786;2023-11-21T02:57:22;2.45;;;1.52;;
53245;SDS011;39569;51.090;-1.786;2023-11-21T02:59:49;0.93;;;0.88;;
53245;SDS011;39569;51.090;-1.786;2023-11-21T03:02:15;2.17;;;1.98;;
53245;SDS011;39569;51.090;-1.786;2023-11-21T03:04:42;1.98;;;1.67;;
53245;SDS011;39569;51.090;-1.786;2023-11-21T03:07:09;1.52;;;1.42;;
53245;SDS011;39569;51.090;-1.786;2023-11-21T03:09:36;2.20;;;2.10;;
53245;SDS011;39569;51.090;-1.786;2023-11-21T03:12:03;9.20;;;2.58;;
53245;SDS011;39569;51.090;-1.786;2023-11-21T03:14:31;3.35;;;2.80;;
53245;SDS011;39569;51.090;-1.786;2023-11-21T03:16:58;4.68;;;3.45;;
53245;SDS011;39569;51.090;-1.786;2023-11-21T03:19:25;4.63;;;4.18;;
53245;SDS011;39569;51.090;-1.786;2023-11-21T03:21:52;4.25;;;3.95;;
53245;SDS011;39569;51.090;-1.786;2023-11-21T03:24:19;3.33;;;3.05;;
53245;SDS011;39569;51.090;-1.786;2023-11-21T03:26:47;4.20;;;3.60;;
53245;SDS011;39569;51.090;-1.786;2023-11-21T03:29:15;5.13;;;4.40;;
53245;SDS011;39569;51.090;-1.786;2023-11-21T03:31:43;5.97;;;4.93;;
53245;SDS011;39569;51.090;-1.786;2023-11-21T03:34:14;5.95;;;2.45;;
53245;SDS011;39569;51.090;-1.786;2023-11-21T03:36:43;2.45;;;2.35;;
53245;SDS011;39569;51.090;-1.786;2023-11-21T03:39:11;6.00;;;5.57;;
53245;SDS011;39569;51.090;-1.786;2023-11-21T03:41:38;6.32;;;5.72;;
53245;SDS011;39569;51.090;-1.786;2023-11-21T03:44:04;5.72;;;4.63;;
53245;SDS011;39569;51.090;-1.786;2023-11-21T03:46:31;6.13;;;5.07;;
53245;SDS011;39569;51.090;-1.786;2023-11-21T03:48:59;6.85;;;6.25;;
53245;SDS011;39569;51.090;-1.786;2023-11-21T03:51:26;2.85;;;2.65;;
53245;SDS011;39569;51.090;-1.786;2023-11-21T03:53:53;3.20;;;2.97;;
53245;SDS011;39569;51.090;-1.786;2023-11-21T03:56:19;6.28;;;4.85;;
53245;SDS011;39569;51.090;-1.786;2023-11-21T03:58:46;7.03;;;6.03;;
53245;SDS011;39569;51.090;-1.786;2023-11-21T04:01:18;6.30;;;5.80;;
53245;SDS011;39569;51.090;-1.786;2023-11-21T04:03:47;8.18;;;6.22;;
53245;SDS011;39569;51.090;-1.786;2023-11-21T04:06:15;6.30;;;5.68;;
53245;SDS011;39569;51.090;-1.786;2023-11-21T04:08:42;6.05;;;5.65;;
53245;SDS011;39569;51.090;-1.786;2023-11-21T04:11:09;11.38;;;7.18;;
53245;SDS011;39569;51.090;-1.786;2023-11-21T04:13:37;7.13;;;6.50;;
53245;SDS011;39569;51.090;-1.786;2023-11-21T04:16:04;8.23;;;6.53;;
53245;SDS011;39569;51.090;-1.786;2023-11-21T04:18:31;7.15;;;6.35;;
53245;SDS011;39569;51.090;-1.786;2023-11-21T04:20:58;8.95;;;5.90;;
53245;SDS011;39569;51.090;-1.786;2023-11-21T04:23:27;6.82;;;6.30;;
53245;SDS011;39569;51.090;-1.786;2023-11-21T04:25:55;4.03;;;3.72;;
53245;SDS011;39569;51.090;-1.786;2023-11-21T04:28:22;4.25;;;3.92;;
53245;SDS011;39569;51.090;-1.786;2023-11-21T04:30:49;12.73;;;3.78;;
53245;SDS011;39569;51.090;-1.786;2023-11-21T04:33:16;7.97;;;7.28;;
53245;SDS011;39569;51.090;-1.786;2023-11-21T04:35:44;8.23;;;7.63;;
53245;SDS011;39569;51.090;-1.786;2023-11-21T04:38:11;7.75;;;7.22;;
53245;SDS011;39569;51.090;-1.786;2023-11-21T04:40:39;9.40;;;8.20;;
53245;SDS011;39569;51.090;-1.786;2023-11-21T04:43:06;4.72;;;4.38;;
53245;SDS011;39569;51.090;-1.786;2023-11-21T04:45:32;9.30;;;8.40;;
53245;SDS011;39569;51.090;-1.786;2023-11-21T04:47:59;8.07;;;7.45;;
53245;SDS011;39569;51.090;-1.786;2023-11-21T04:50:26;9.27;;;8.48;;
53245;SDS011;39569;51.090;-1.786;2023-11-21T04:52:53;8.50;;;7.78;;
53245;SDS011;39569;51.090;-1.786;2023-11-21T04:55:20;9.18;;;8.32;;
53245;SDS011;39569;51.090;-1.786;2023-11-21T04:57:48;9.45;;;8.10;;
53245;SDS011;39569;51.090;-1.786;2023-11-21T05:00:15;11.00;;;9.90;;
53245;SDS011;39569;51.090;-1.786;2023-11-21T05:02:42;9.35;;;8.45;;
53245;SDS011;39569;51.090;-1.786;2023-11-21T05:05:09;10.82;;;9.95;;
53245;SDS011;39569;51.090;-1.786;2023-11-21T05:07:36;8.98;;;8.30;;
53245;SDS011;39569;51.090;-1.786;2023-11-21T05:10:03;9.05;;;8.27;;
53245;SDS011;39569;51.090;-1.786;2023-11-21T05:12:33;8.45;;;7.40;;
53245;SDS011;39569;51.090;-1.786;2023-11-21T05:15:02;9.30;;;8.40;;
53245;SDS011;39569;51.090;-1.786;2023-11-21T05:17:35;9.02;;;8.43;;
53245;SDS011;39569;51.090;-1.786;2023-11-21T05:20:02;9.52;;;8.65;;
53245;SDS011;39569;51.090;-1.786;2023-11-21T05:22:33;9.57;;;8.85;;
53245;SDS011;39569;51.090;-1.786;2023-11-21T05:25:00;10.38;;;8.68;;
53245;SDS011;39569;51.090;-1.786;2023-11-21T05:27:28;9.10;;;8.40;;
53245;SDS011;39569;51.090;-1.786;2023-11-21T05:29:54;9.02;;;8.43;;
53245;SDS011;39569;51.090;-1.786;2023-11-21T05:32:22;8.63;;;8.02;;
53245;SDS011;39569;51.090;-1.786;2023-11-21T05:34:49;8.75;;;8.15;;
53245;SDS011;39569;51.090;-1.786;2023-11-21T05:37:16;8.38;;;7.75;;
53245;SDS011;39569;51.090;-1.786;2023-11-21T05:39:43;7.75;;;7.10;;
53245;SDS011;39569;51.090;-1.786;2023-11-21T05:42:10;8.75;;;7.65;;
53245;SDS011;39569;51.090;-1.786;2023-11-21T05:44:37;8.50;;;7.80;;
53245;SDS011;39569;51.090;-1.786;2023-11-21T05:47:07;7.75;;;7.05;;
53245;SDS011;39569;51.090;-1.786;2023-11-21T05:49:35;7.47;;;6.88;;
53245;SDS011;39569;51.090;-1.786;2023-11-21T05:52:02;14.70;;;3.95;;
53245;SDS011;39569;51.090;-1.786;2023-11-21T05:54:30;4.25;;;3.95;;
53245;SDS011;39569;51.090;-1.786;2023-11-21T05:56:56;7.65;;;7.07;;
53245;SDS011;39569;51.090;-1.786;2023-11-21T05:59:23;7.78;;;7.03;;
53245;SDS011;39569;51.090;-1.786;2023-11-21T06:01:49;6.60;;;6.18;;
53245;SDS011;39569;51.090;-1.786;2023-11-21T06:04:17;7.07;;;6.53;;
53245;SDS011;39569;51.090;-1.786;2023-11-21T06:06:45;6.80;;;6.30;;
53245;SDS011;39569;51.090;-1.786;2023-11-21T06:09:11;7.65;;;7.00;;
53245;SDS011;39569;51.090;-1.786;2023-11-21T06:11:38;8.27;;;7.68;;
53245;SDS011;39569;51.090;-1.786;2023-11-21T06:14:05;6.88;;;6.28;;
53245;SDS011;39569;51.090;-1.786;2023-11-21T06:16:34;4.32;;;4.00;;
53245;SDS011;39569;51.090;-1.786;2023-11-21T06:19:01;6.50;;;5.63;;
53245;SDS011;39569;51.090;-1.786;2023-11-21T06:21:28;5.53;;;4.78;;
53245;SDS011;39569;51.090;-1.786;2023-11-21T06:23:56;5.05;;;4.65;;
53245;SDS011;39569;51.090;-1.786;2023-11-21T06:26:23;7.68;;;4.90;;
53245;SDS011;39569;51.090;-1.786;2023-11-21T06:28:50;4.40;;;3.95;;
53245;SDS011;39569;51.090;-1.786;2023-11-21T06:31:18;4.32;;;3.90;;
53245;SDS011;39569;51.090;-1.786;2023-11-21T06:33:44;12.68;;;3.70;;
53245;SDS011;39569;51.090;-1.786;2023-11-21T06:36:11;1.27;;;1.27;;
53245;SDS011;39569;51.090;-1.786;2023-11-21T06:38:38;1.77;;;1.70;;
53245;SDS011;39569;51.090;-1.786;2023-11-21T06:41:06;1.35;;;1.25;;
53245;SDS011;39569;51.090;-1.786;2023-11-21T06:43:33;2.53;;;2.20;;
53245;SDS011;39569;51.090;-1.786;2023-11-21T06:46:01;2.60;;;2.40;;
53245;SDS011;39569;51.090;-1.786;2023-11-21T06:48:27;8.98;;;3.08;;
53245;SDS011;39569;51.090;-1.786;2023-11-21T06:50:55;2.50;;;2.30;;
53245;SDS011;39569;51.090;-1.786;2023-11-21T06:53:21;9.73;;;2.80;;
53245;SDS011;39569;51.090;-1.786;2023-11-21T06:55:48;1.33;;;1.33;;
53245;SDS011;39569;51.090;-1.786;2023-11-21T06:58:16;2.65;;;2.45;;
53245;SDS011;39569;51.090;-1.786;2023-11-21T07:00:43;4.78;;;2.25;;
53245;SDS011;39569;51.090;-1.786;2023-11-21T07:03:12;3.97;;;2.17;;
53245;SDS011;39569;51.090;-1.786;2023-11-21T07:05:38;2.92;;;2.63;;
53245;SDS011;39569;51.090;-1.786;2023-11-21T07:08:06;0.88;;;0.88;;
53245;SDS011;39569;51.090;-1.786;2023-11-21T07:10:32;3.65;;;2.28;;
53245;SDS011;39569;51.090;-1.786;2023-11-21T07:13:00;1.73;;;1.63;;
53245;SDS011;39569;51.090;-1.786;2023-11-21T07:15:28;3.25;;;1.83;;
53245;SDS011;39569;51.090;-1.786;2023-11-21T07:17:55;2.60;;;1.77;;
53245;SDS011;39569;51.090;-1.786;2023-11-21T07:20:22;4.78;;;2.22;;
53245;SDS011;39569;51.090;-1.786;2023-11-21T07:22:48;2.22;;;1.67;;
53245;SDS011;39569;51.090;-1.786;2023-11-21T07:25:15;1.85;;;0.95;;
53245;SDS011;39569;51.090;-1.786;2023-11-21T07:27:42;29.13;;;3.67;;
53245;SDS011;39569;51.090;-1.786;2023-11-21T07:30:10;2.15;;;1.73;;
53245;SDS011;39569;51.090;-1.786;2023-11-21T07:32:39;1.45;;;1.35;;
53245;SDS011;39569;51.090;-1.786;2023-11-21T07:35:06;2.30;;;1.38;;
53245;SDS011;39569;51.090;-1.786;2023-11-21T07:37:33;0.60;;;0.60;;
53245;SDS011;39569;51.090;-1.786;2023-11-21T07:40:00;1.83;;;1.45;;
53245;SDS011;39569;51.090;-1.786;2023-11-21T07:42:28;1.15;;;0.90;;
53245;SDS011;39569;51.090;-1.786;2023-11-21T07:44:54;1.10;;;1.00;;
53245;SDS011;39569;51.090;-1.786;2023-11-21T07:47:21;0.30;;;0.30;;
53245;SDS011;39569;51.090;-1.786;2023-11-21T07:49:53;1.13;;;1.02;;
53245;SDS011;39569;51.090;-1.786;2023-11-21T07:52:21;2.85;;;1.40;;
53245;SDS011;39569;51.090;-1.786;2023-11-21T07:54:47;0.82;;;0.82;;
53245;SDS011;39569;51.090;-1.786;2023-11-21T07:57:14;1.30;;;1.20;;
53245;SDS011;39569;51.090;-1.786;2023-11-21T07:59:41;1.05;;;1.00;;
53245;SDS011;39569;51.090;-1.786;2023-11-21T08:02:08;0.75;;;0.55;;
53245;SDS011;39569;51.090;-1.786;2023-11-21T08:04:34;0.30;;;0.30;;
53245;SDS011;39569;51.090;-1.786;2023-11-21T08:07:03;4.00;;;1.80;;
53245;SDS011;39569;51.090;-1.786;2023-11-21T08:09:30;3.03;;;1.60;;
53245;SDS011;39569;51.090;-1.786;2023-11-21T08:11:56;0.85;;;0.85;;
53245;SDS011;39569;51.090;-1.786;2023-11-21T08:14:25;2.83;;;2.20;;
53245;SDS011;39569;51.090;-1.786;2023-11-21T08:16:52;0.20;;;0.20;;
53245;SDS011;39569;51.090;-1.786;2023-11-21T08:19:22;2.47;;;1.25;;
53245;SDS011;39569;51.090;-1.786;2023-11-21T08:21:50;1.45;;;1.20;;
53245;SDS011;39569;51.090;-1.786;2023-11-21T08:24:20;0.52;;;0.52;;
53245;SDS011;39569;51.090;-1.786;2023-11-21T08:26:46;1.50;;;1.38;;
53245;SDS011;39569;51.090;-1.786;2023-11-21T08:29:13;6.88;;;0.90;;
53245;SDS011;39569;51.090;-1.786;2023-11-21T08:31:40;1.70;;;1.38;;
53245;SDS011;39569;51.090;-1.786;2023-11-21T08:34:07;1.98;;;1.23;;
53245;SDS011;39569;51.090;-1.786;2023-11-21T08:36:33;2.17;;;0.63;;
53245;SDS011;39569;51.090;-1.786;2023-11-21T08:39:00;8.88;;;1.35;;
53245;SDS011;39569;51.090;-1.786;2023-11-21T08:41:28;0.50;;;0.50;;
53245;SDS011;39569;51.090;-1.786;2023-11-21T08:43:55;0.70;;;0.70;;
53245;SDS011;39569;51.090;-1.786;2023-11-21T08:46:23;4.22;;;0.93;;
53245;SDS011;39569;51.090;-1.786;2023-11-21T08:48:50;2.13;;;1.20;;
53245;SDS011;39569;51.090;-1.786;2023-11-21T08:51:18;2.65;;;1.85;;
53245;SDS011;39569;51.090;-1.786;2023-11-21T08:53:45;2.95;;;1.23;;
53245;SDS011;39569;51.090;-1.786;2023-11-21T08:56:13;0.77;;;0.77;;
53245;SDS011;39569;51.090;-1.786;2023-11-21T08:58:41;1.35;;;1.20;;
53245;SDS011;39569;51.090;-1.786;2023-11-21T09:01:08;5.70;;;1.20;;
53245;SDS011;39569;51.090;-1.786;2023-11-21T09:03:35;5.75;;;1.92;;
53245;SDS011;39569;51.090;-1.786;2023-11-21T09:06:02;5.13;;;0.77;;
53245;SDS011;39569;51.090;-1.786;2023-11-21T09:08:29;1.33;;;1.20;;
53245;SDS011;39569;51.090;-1.786;2023-11-21T09:10:57;2.75;;;1.30;;
53245;SDS011;39569;51.090;-1.786;2023-11-21T09:13:24;2.63;;;1.70;;
53245;SDS011;39569;51.090;-1.786;2023-11-21T09:15:52;0.25;;;0.25;;
53245;SDS011;39569;51.090;-1.786;2023-11-21T09:18:19;1.20;;;1.10;;
53245;SDS011;39569;51.090;-1.786;2023-11-21T09:20:46;1.80;;;1.33;;
53245;SDS011;39569;51.090;-1.786;2023-11-21T09:23:13;3.03;;;1.33;;
53245;SDS011;39569;51.090;-1.786;2023-11-21T09:25:40;1.90;;;1.27;;
53245;SDS011;39569;51.090;-1.786;2023-11-21T09:28:11;3.55;;;1.40;;
53245;SDS011;39569;51.090;-1.786;2023-11-21T09:30:37;1.45;;;1.35;;
53245;SDS011;39569;51.090;-1.786;2023-11-21T09:33:06;9.80;;;1.67;;
53245;SDS011;39569;51.090;-1.786;2023-11-21T09:35:35;0.85;;;0.85;;
53245;SDS011;39569;51.090;-1.786;2023-11-21T09:38:03;0.57;;;0.57;;
53245;SDS011;39569;51.090;-1.786;2023-11-21T09:40:30;3.65;;;1.65;;
53245;SDS011;39569;51.090;-1.786;2023-11-21T09:42:58;1.52;;;1.42;;
53245;SDS011;39569;51.090;-1.786;2023-11-21T09:45:25;3.38;;;1.40;;
53245;SDS011;39569;51.090;-1.786;2023-11-21T09:47:54;2.00;;;1.30;;
53245;SDS011;39569;51.090;-1.786;2023-11-21T09:50:23;0.45;;;0.45;;
53245;SDS011;39569;51.090;-1.786;2023-11-21T09:52:54;2.20;;;1.50;;
53245;SDS011;39569;51.090;-1.786;2023-11-21T09:55:26;1.63;;;1.52;;
53245;SDS011;39569;51.090;-1.786;2023-11-21T09:57:55;1.67;;;1.50;;
53245;SDS011;39569;51.090;-1.786;2023-11-21T10:00:23;1.40;;;1.33;;
53245;SDS011;39569;51.090;-1.786;2023-11-21T10:02:50;2.60;;;1.77;;
53245;SDS011;39569;51.090;-1.786;2023-11-21T10:05:18;1.30;;;1.20;;
53245;SDS011;39569;51.090;-1.786;2023-11-21T10:07:48;0.60;;;0.60;;
53245;SDS011;39569;51.090;-1.786;2023-11-21T10:10:18;3.25;;;2.05;;
53245;SDS011;39569;51.090;-1.786;2023-11-21T10:12:48;1.92;;;1.48;;
53245;SDS011;39569;51.090;-1.786;2023-11-21T10:15:18;3.50;;;0.73;;
53245;SDS011;39569;51.090;-1.786;2023-11-21T10:17:48;0.45;;;0.45;;
53245;SDS011;39569;51.090;-1.786;2023-11-21T10:20:15;2.88;;;2.10;;
53245;SDS011;39569;51.090;-1.786;2023-11-21T10:22:42;1.75;;;1.50;;
53245;SDS011;39569;51.090;-1.786;2023-11-21T10:25:11;1.88;;;1.23;;
53245;SDS011;39569;51.090;-1.786;2023-11-21T10:27:39;1.13;;;1.13;;
53245;SDS011;39569;51.090;-1.786;2023-11-21T10:30:08;1.67;;;1.17;;
53245;SDS011;39569;51.090;-1.786;2023-11-21T10:32:37;1.98;;;1.20;;
53245;SDS011;39569;51.090;-1.786;2023-11-21T10:35:05;0.88;;;0.88;;
53245;SDS011;39569;51.090;-1.786;2023-11-21T10:37:35;3.92;;;1.65;;
53245;SDS011;39569;51.090;-1.786;2023-11-21T10:40:04;1.67;;;1.52;;
53245;SDS011;39569;51.090;-1.786;2023-11-21T10:42:33;1.55;;;1.45;;
53245;SDS011;39569;51.090;-1.786;2023-11-21T10:45:00;2.67;;;1.60;;
53245;SDS011;39569;51.090;-1.786;2023-11-21T10:47:28;1.55;;;1.45;;
53245;SDS011;39569;51.090;-1.786;2023-11-21T10:49:57;0.70;;;0.70;;
53245;SDS011;39569;51.090;-1.786;2023-11-21T10:52:27;0.70;;;0.70;;
53245;SDS011;39569;51.090;-1.786;2023-11-21T10:54:54;3.80;;;1.95;;
53245;SDS011;39569;51.090;-1.786;2023-11-21T10:57:20;3.13;;;1.83;;
53245;SDS011;39569;51.090;-1.786;2023-11-21T10:59:51;5.07;;;1.80;;
53245;SDS011;39569;51.090;-1.786;2023-11-21T11:02:23;2.67;;;1.73;;
53245;SDS011;39569;51.090;-1.786;2023-11-21T11:04:53;2.15;;;1.95;;
53245;SDS011;39569;51.090;-1.786;2023-11-21T11:07:21;2.30;;;2.13;;
53245;SDS011;39569;51.090;-1.786;2023-11-21T11:09:52;2.63;;;2.30;;
53245;SDS011;39569;51.090;-1.786;2023-11-21T11:12:19;3.75;;;2.78;;
53245;SDS011;39569;51.090;-1.786;2023-11-21T11:14:46;1.40;;;1.35;;
53245;SDS011;39569;51.090;-1.786;2023-11-21T11:17:15;2.28;;;2.00;;
53245;SDS011;39569;51.090;-1.786;2023-11-21T11:19:45;3.67;;;2.80;;
53245;SDS011;39569;51.090;-1.786;2023-11-21T11:22:18;6.55;;;1.90;;
53245;SDS011;39569;51.090;-1.786;2023-11-21T11:25:00;4.15;;;2.58;;
53245;SDS011;39569;51.090;-1.786;2023-11-21T11:27:40;6.28;;;2.80;;
53245;SDS011;39569;51.090;-1.786;2023-11-21T11:30:16;1.60;;;1.50;;
53245;SDS011;39569;51.090;-1.786;2023-11-21T11:32:58;1.23;;;1.20;;
53245;SDS011;39569;51.090;-1.786;2023-11-21T11:35:33;2.15;;;2.05;;
53245;SDS011;39569;51.090;-1.786;2023-11-21T11:38:04;2.75;;;2.28;;
53245;SDS011;39569;51.090;-1.786;2023-11-21T11:40:40;2.47;;;1.83;;
53245;SDS011;39569;51.090;-1.786;2023-11-21T11:43:08;7.10;;;1.83;;
53245;SDS011;39569;51.090;-1.786;2023-11-21T11:45:35;1.48;;;1.45;;
53245;SDS011;39569;51.090;-1.786;2023-11-21T11:48:07;6.30;;;2.85;;
53245;SDS011;39569;51.090;-1.786;2023-11-21T11:50:41;6.50;;;3.15;;
53245;SDS011;39569;51.090;-1.786;2023-11-21T11:53:28;4.25;;;2.72;;
53245;SDS011;39569;51.090;-1.786;2023-11-21T11:58:47;3.17;;;2.95;;
53245;SDS011;39569;51.090;-1.786;2023-11-21T12:01:16;2.55;;;2.35;;
53245;SDS011;39569;51.090;-1.786;2023-11-21T12:03:45;2.58;;;2.38;;
53245;SDS011;39569;51.090;-1.786;2023-11-21T12:06:56;1.38;;;1.13;;
53245;SDS011;39569;51.090;-1.786;2023-11-21T12:09:25;16.98;;;3.20;;
53245;SDS011;39569;51.090;-1.786;2023-11-21T12:11:54;1.38;;;1.27;;
53245;SDS011;39569;51.090;-1.786;2023-11-21T12:14:22;2.85;;;2.65;;
53245;SDS011;39569;51.090;-1.786;2023-11-21T12:16:49;2.40;;;2.20;;
53245;SDS011;39569;51.090;-1.786;2023-11-21T12:19:18;2.33;;;2.10;;
53245;SDS011;39569;51.090;-1.786;2023-11-21T12:21:47;2.05;;;1.95;;
53245;SDS011;39569;51.090;-1.786;2023-11-21T12:24:15;4.68;;;2.83;;
53245;SDS011;39569;51.090;-1.786;2023-11-21T12:26:42;6.18;;;2.72;;
53245;SDS011;39569;51.090;-1.786;2023-11-21T12:29:10;2.03;;;1.80;;
53245;SDS011;39569;51.090;-1.786;2023-11-21T12:31:37;2.97;;;2.50;;
53245;SDS011;39569;51.090;-1.786;2023-11-21T12:34:04;2.53;;;2.33;;
53245;SDS011;39569;51.090;-1.786;2023-11-21T12:36:33;3.47;;;2.30;;
53245;SDS011;39569;51.090;-1.786;2023-11-21T12:39:01;3.15;;;1.48;;
53245;SDS011;39569;51.090;-1.786;2023-11-21T12:41:29;4.80;;;2.00;;
53245;SDS011;39569;51.090;-1.786;2023-11-21T12:43:56;2.30;;;2.17;;
53245;SDS011;39569;51.090;-1.786;2023-11-21T12:46:23;3.33;;;2.10;;
53245;SDS011;39569;51.090;-1.786;2023-11-21T12:48:54;2.45;;;2.35;;
53245;SDS011;39569;51.090;-1.786;2023-11-21T12:51:21;2.53;;;2.33;;
53245;SDS011;39569;51.090;-1.786;2023-11-21T12:53:50;4.10;;;2.60;;
53245;SDS011;39569;51.090;-1.786;2023-11-21T12:56:17;2.70;;;2.38;;
53245;SDS011;39569;51.090;-1.786;2023-11-21T12:58:48;2.83;;;2.63;;
53245;SDS011;39569;51.090;-1.786;2023-11-21T13:01:16;5.70;;;3.75;;
53245;SDS011;39569;51.090;-1.786;2023-11-21T13:03:46;15.40;;;5.97;;
53245;SDS011;39569;51.090;-1.786;2023-11-21T13:06:16;2.85;;;2.58;;
53245;SDS011;39569;51.090;-1.786;2023-11-21T13:08:44;4.63;;;2.50;;
53245;SDS011;39569;51.090;-1.786;2023-11-21T13:11:13;2.90;;;2.70;;
53245;SDS011;39569;51.090;-1.786;2023-11-21T13:13:41;3.55;;;2.08;;
53245;SDS011;39569;51.090;-1.786;2023-11-21T13:16:09;3.22;;;2.63;;
53245;SDS011;39569;51.090;-1.786;2023-11-21T13:18:36;2.05;;;1.95;;
53245;SDS011;39569;51.090;-1.786;2023-11-21T13:21:05;1.83;;;1.73;;
53245;SDS011;39569;51.090;-1.786;2023-11-21T13:23:36;2.15;;;2.05;;
53245;SDS011;39569;51.090;-1.786;2023-11-21T13:26:03;2.58;;;2.10;;
53245;SDS011;39569;51.090;-1.786;2023-11-21T13:28:32;2.50;;;2.20;;
53245;SDS011;39569;51.090;-1.786;2023-11-21T13:30:59;2.85;;;2.65;;
53245;SDS011;39569;51.090;-1.786;2023-11-21T13:33:34;3.70;;;3.45;;
53245;SDS011;39569;51.090;-1.786;2023-11-21T13:36:03;4.45;;;4.10;;
53245;SDS011;39569;51.090;-1.786;2023-11-21T13:38:32;4.72;;;4.05;;
53245;SDS011;39569;51.090;-1.786;2023-11-21T13:41:00;1.60;;;1.50;;
53245;SDS011;39569;51.090;-1.786;2023-11-21T13:43:33;1.00;;;1.00;;
53245;SDS011;39569;51.090;-1.786;2023-11-21T13:46:01;1.42;;;1.15;;
53245;SDS011;39569;51.090;-1.786;2023-11-21T13:48:37;1.23;;;1.10;;
53245;SDS011;39569;51.090;-1.786;2023-11-21T13:51:07;1.20;;;1.13;;
53245;SDS011;39569;51.090;-1.786;2023-11-21T13:53:41;1.88;;;1.27;;
53245;SDS011;39569;51.090;-1.786;2023-11-21T13:56:08;2.63;;;1.83;;
53245;SDS011;39569;51.090;-1.786;2023-11-21T13:58:36;3.10;;;2.78;;
53245;SDS011;39569;51.090;-1.786;2023-11-21T14:01:10;0.90;;;0.90;;
53245;SDS011;39569;51.090;-1.786;2023-11-21T14:03:50;1.52;;;1.25;;
53245;SDS011;39569;51.090;-1.786;2023-11-21T14:06:21;1.83;;;1.38;;
53245;SDS011;39569;51.090;-1.786;2023-11-21T14:08:55;1.55;;;0.85;;
53245;SDS011;39569;51.090;-1.786;2023-11-21T14:11:22;1.52;;;1.00;;
53245;SDS011;39569;51.090;-1.786;2023-11-21T14:13:50;1.55;;;1.30;;
53245;SDS011;39569;51.090;-1.786;2023-11-21T14:16:17;3.33;;;1.77;;
53245;SDS011;39569;51.090;-1.786;2023-11-21T14:18:44;1.55;;;1.45;;
53245;SDS011;39569;51.090;-1.786;2023-11-21T14:21:20;1.23;;;1.08;;
53245;SDS011;39569;51.090;-1.786;2023-11-21T14:23:47;1.25;;;1.15;;
53245;SDS011;39569;51.090;-1.786;2023-11-21T14:26:14;1.60;;;1.50;;
53245;SDS011;39569;51.090;-1.786;2023-11-21T14:28:42;1.67;;;1.10;;
53245;SDS011;39569;51.090;-1.786;2023-11-21T14:31:10;1.50;;;0.95;;
53245;SDS011;39569;51.090;-1.786;2023-11-21T14:33:40;2.75;;;1.42;;
53245;SDS011;39569;51.090;-1.786;2023-11-21T14:36:07;2.10;;;1.90;;
53245;SDS011;39569;51.090;-1.786;2023-11-21T14:38:35;2.13;;;1.30;;
53245;SDS011;39569;51.090;-1.786;2023-11-21T14:41:02;3.42;;;1.85;;